sensor_id;sensor_type;location;lat;lon;timestamp;P1;durP1;ratioP1;P2;durP2;ratioP2
59374;SDS011;45172;55.006;73.460;2022-12-07T00:02:21;37.92;;;10.40;;
59374;SDS011;45172;55.006;73.460;2022-12-07T00:04:54;14.02;;;7.45;;
59374;SDS011;45172;55.006;73.460;2022-12-07T00:07:20;24.27;;;8.43;;
59374;SDS011;45172;55.006;73.460;2022-12-07T00:09:56;24.30;;;8.10;;
59374;SDS011;45172;55.006;73.460;2022-12-07T00:12:27;27.02;;;10.88;;
59374;SDS011;45172;55.006;73.460;2022-12-07T00:14:53;21.77;;;8.85;;
59374;SDS011;45172;55.006;73.460;2022-12-07T00:17:21;37.45;;;12.15;;
59374;SDS011;45172;55.006;73.460;2022-12-07T00:19:47;32.33;;;12.23;;
59374;SDS011;45172;55.006;73.460;2022-12-07T00:22:13;31.15;;;12.38;;
59374;SDS011;45172;55.006;73.460;2022-12-07T00:24:39;30.45;;;12.35;;
59374;SDS011;45172;55.006;73.460;2022-12-07T00:27:05;42.03;;;12.73;;
59374;SDS011;45172;55.006;73.460;2022-12-07T00:29:31;15.38;;;7.38;;
59374;SDS011;45172;55.006;73.460;2022-12-07T00:31:58;34.70;;;11.05;;
59374;SDS011;45172;55.006;73.460;2022-12-07T00:34:23;36.67;;;14.05;;
59374;SDS011;45172;55.006;73.460;2022-12-07T00:36:49;52.13;;;15.35;;
59374;SDS011;45172;55.006;73.460;2022-12-07T00:39:25;48.20;;;16.20;;
59374;SDS011;45172;55.006;73.460;2022-12-07T00:41:51;64.03;;;17.85;;
59374;SDS011;45172;55.006;73.460;2022-12-07T00:44:17;47.42;;;16.92;;
59374;SDS011;45172;55.006;73.460;2022-12-07T00:46:43;33.30;;;14.73;;
59374;SDS011;45172;55.006;73.460;2022-12-07T00:49:11;47.13;;;15.75;;
59374;SDS011;45172;55.006;73.460;2022-12-07T00:51:37;38.42;;;15.18;;
59374;SDS011;45172;55.006;73.460;2022-12-07T00:54:03;52.50;;;17.23;;
59374;SDS011;45172;55.006;73.460;2022-12-07T00:56:29;49.67;;;17.35;;
59374;SDS011;45172;55.006;73.460;2022-12-07T00:58:56;66.22;;;22.45;;
59374;SDS011;45172;55.006;73.460;2022-12-07T01:01:25;62.45;;;20.48;;
59374;SDS011;45172;55.006;73.460;2022-12-07T01:03:52;53.03;;;17.30;;
59374;SDS011;45172;55.006;73.460;2022-12-07T01:06:19;57.95;;;19.10;;
59374;SDS011;45172;55.006;73.460;2022-12-07T01:08:47;62.75;;;18.73;;
59374;SDS011;45172;55.006;73.460;2022-12-07T01:11:20;59.70;;;22.13;;
59374;SDS011;45172;55.006;73.460;2022-12-07T01:13:49;42.08;;;17.23;;
59374;SDS011;45172;55.006;73.460;2022-12-07T01:16:16;52.40;;;18.35;;
59374;SDS011;45172;55.006;73.460;2022-12-07T01:18:44;47.65;;;19.10;;
59374;SDS011;45172;55.006;73.460;2022-12-07T01:21:13;57.83;;;18.63;;
59374;SDS011;45172;55.006;73.460;2022-12-07T01:23:42;54.40;;;17.77;;
59374;SDS011;45172;55.006;73.460;2022-12-07T01:26:12;44.22;;;15.73;;
59374;SDS011;45172;55.006;73.460;2022-12-07T01:28:41;43.63;;;16.40;;
59374;SDS011;45172;55.006;73.460;2022-12-07T01:31:08;56.67;;;19.33;;
59374;SDS011;45172;55.006;73.460;2022-12-07T01:38:38;58.65;;;18.23;;
59374;SDS011;45172;55.006;73.460;2022-12-07T01:41:04;64.47;;;19.15;;
59374;SDS011;45172;55.006;73.460;2022-12-07T01:43:31;21.38;;;10.45;;
59374;SDS011;45172;55.006;73.460;2022-12-07T01:45:59;68.15;;;19.45;;
59374;SDS011;45172;55.006;73.460;2022-12-07T01:48:32;50.70;;;16.55;;
59374;SDS011;45172;55.006;73.460;2022-12-07T01:51:04;39.45;;;14.43;;
59374;SDS011;45172;55.006;73.460;2022-12-07T01:53:36;48.30;;;17.17;;
59374;SDS011;45172;55.006;73.460;2022-12-07T01:56:05;40.42;;;14.82;;
59374;SDS011;45172;55.006;73.460;2022-12-07T01:58:38;55.65;;;16.45;;
59374;SDS011;45172;55.006;73.460;2022-12-07T02:01:04;36.60;;;14.23;;
59374;SDS011;45172;55.006;73.460;2022-12-07T02:03:32;44.28;;;14.00;;
59374;SDS011;45172;55.006;73.460;2022-12-07T02:06:04;33.07;;;13.60;;
59374;SDS011;45172;55.006;73.460;2022-12-07T02:08:32;28.92;;;10.02;;
59374;SDS011;45172;55.006;73.460;2022-12-07T02:11:07;27.48;;;9.93;;
59374;SDS011;45172;55.006;73.460;2022-12-07T02:13:35;29.80;;;11.63;;
59374;SDS011;45172;55.006;73.460;2022-12-07T02:16:08;36.35;;;12.32;;
59374;SDS011;45172;55.006;73.460;2022-12-07T02:21:40;30.23;;;11.18;;
59374;SDS011;45172;55.006;73.460;2022-12-07T02:24:48;40.78;;;11.07;;
59374;SDS011;45172;55.006;73.460;2022-12-07T02:30:24;24.83;;;10.27;;
59374;SDS011;45172;55.006;73.460;2022-12-07T02:33:14;35.22;;;11.32;;
59374;SDS011;45172;55.006;73.460;2022-12-07T02:35:45;42.00;;;11.80;;
59374;SDS011;45172;55.006;73.460;2022-12-07T02:38:31;37.95;;;13.93;;
59374;SDS011;45172;55.006;73.460;2022-12-07T02:41:12;37.75;;;14.18;;
59374;SDS011;45172;55.006;73.460;2022-12-07T02:44:03;43.55;;;14.70;;
59374;SDS011;45172;55.006;73.460;2022-12-07T02:46:39;68.10;;;19.98;;
59374;SDS011;45172;55.006;73.460;2022-12-07T02:49:21;114.28;;;27.65;;
59374;SDS011;45172;55.006;73.460;2022-12-07T02:51:49;108.85;;;24.55;;
59374;SDS011;45172;55.006;73.460;2022-12-07T02:54:16;106.47;;;27.65;;
59374;SDS011;45172;55.006;73.460;2022-12-07T02:57:03;97.63;;;26.50;;
59374;SDS011;45172;55.006;73.460;2022-12-07T03:08:43;44.65;;;16.63;;
59374;SDS011;45172;55.006;73.460;2022-12-07T03:11:33;19.90;;;9.38;;
59374;SDS011;45172;55.006;73.460;2022-12-07T03:14:12;17.95;;;7.78;;
59374;SDS011;45172;55.006;73.460;2022-12-07T03:16:55;34.95;;;6.60;;
59374;SDS011;45172;55.006;73.460;2022-12-07T03:19:37;27.33;;;9.05;;
59374;SDS011;45172;55.006;73.460;2022-12-07T03:22:06;20.55;;;7.20;;
59374;SDS011;45172;55.006;73.460;2022-12-07T03:24:37;24.40;;;8.90;;
59374;SDS011;45172;55.006;73.460;2022-12-07T03:27:18;31.45;;;8.90;;
59374;SDS011;45172;55.006;73.460;2022-12-07T03:29:57;17.15;;;7.07;;
59374;SDS011;45172;55.006;73.460;2022-12-07T03:32:34;34.63;;;8.65;;
59374;SDS011;45172;55.006;73.460;2022-12-07T03:40:27;28.77;;;10.25;;
59374;SDS011;45172;55.006;73.460;2022-12-07T03:42:55;29.08;;;10.85;;
59374;SDS011;45172;55.006;73.460;2022-12-07T03:45:27;28.45;;;9.85;;
59374;SDS011;45172;55.006;73.460;2022-12-07T03:48:13;37.15;;;11.57;;
59374;SDS011;45172;55.006;73.460;2022-12-07T03:50:53;37.35;;;9.70;;
59374;SDS011;45172;55.006;73.460;2022-12-07T03:53:38;37.15;;;12.65;;
59374;SDS011;45172;55.006;73.460;2022-12-07T03:56:08;32.72;;;11.18;;
59374;SDS011;45172;55.006;73.460;2022-12-07T03:58:35;38.60;;;12.55;;
59374;SDS011;45172;55.006;73.460;2022-12-07T04:01:02;43.25;;;13.65;;
59374;SDS011;45172;55.006;73.460;2022-12-07T04:03:28;46.38;;;14.13;;
59374;SDS011;45172;55.006;73.460;2022-12-07T04:05:54;47.00;;;15.80;;
59374;SDS011;45172;55.006;73.460;2022-12-07T04:08:21;73.90;;;19.23;;
59374;SDS011;45172;55.006;73.460;2022-12-07T04:10:47;52.55;;;19.15;;
59374;SDS011;45172;55.006;73.460;2022-12-07T04:13:18;45.33;;;16.20;;
59374;SDS011;45172;55.006;73.460;2022-12-07T04:15:43;61.55;;;19.88;;
59374;SDS011;45172;55.006;73.460;2022-12-07T04:18:09;65.78;;;21.50;;
59374;SDS011;45172;55.006;73.460;2022-12-07T04:20:36;75.18;;;23.20;;
59374;SDS011;45172;55.006;73.460;2022-12-07T04:23:02;77.03;;;23.70;;
59374;SDS011;45172;55.006;73.460;2022-12-07T04:25:28;78.03;;;24.90;;
59374;SDS011;45172;55.006;73.460;2022-12-07T04:27:54;64.85;;;20.90;;
59374;SDS011;45172;55.006;73.460;2022-12-07T04:30:20;83.57;;;23.33;;
59374;SDS011;45172;55.006;73.460;2022-12-07T04:32:46;66.43;;;22.95;;
59374;SDS011;45172;55.006;73.460;2022-12-07T04:35:12;56.10;;;22.05;;
59374;SDS011;45172;55.006;73.460;2022-12-07T04:37:38;64.90;;;24.52;;
59374;SDS011;45172;55.006;73.460;2022-12-07T04:40:06;55.80;;;18.92;;
59374;SDS011;45172;55.006;73.460;2022-12-07T04:42:34;54.95;;;19.08;;
59374;SDS011;45172;55.006;73.460;2022-12-07T04:45:00;59.22;;;20.40;;
59374;SDS011;45172;55.006;73.460;2022-12-07T04:47:26;51.53;;;18.38;;
59374;SDS011;45172;55.006;73.460;2022-12-07T04:49:52;57.97;;;19.45;;
59374;SDS011;45172;55.006;73.460;2022-12-07T04:52:18;72.10;;;23.08;;
59374;SDS011;45172;55.006;73.460;2022-12-07T04:54:54;76.13;;;23.90;;
59374;SDS011;45172;55.006;73.460;2022-12-07T04:57:20;80.65;;;25.63;;
59374;SDS011;45172;55.006;73.460;2022-12-07T04:59:56;72.85;;;24.40;;
59374;SDS011;45172;55.006;73.460;2022-12-07T05:02:21;95.15;;;29.77;;
59374;SDS011;45172;55.006;73.460;2022-12-07T05:04:47;102.57;;;32.03;;
59374;SDS011;45172;55.006;73.460;2022-12-07T05:07:18;104.82;;;31.13;;
59374;SDS011;45172;55.006;73.460;2022-12-07T05:09:44;101.10;;;32.20;;
59374;SDS011;45172;55.006;73.460;2022-12-07T05:12:10;93.25;;;29.27;;
59374;SDS011;45172;55.006;73.460;2022-12-07T05:14:36;86.40;;;27.77;;
59374;SDS011;45172;55.006;73.460;2022-12-07T05:17:02;79.82;;;26.83;;
59374;SDS011;45172;55.006;73.460;2022-12-07T05:19:29;79.57;;;24.83;;
59374;SDS011;45172;55.006;73.460;2022-12-07T05:21:55;79.10;;;25.65;;
59374;SDS011;45172;55.006;73.460;2022-12-07T05:24:21;65.65;;;23.52;;
59374;SDS011;45172;55.006;73.460;2022-12-07T05:26:47;77.07;;;24.83;;
59374;SDS011;45172;55.006;73.460;2022-12-07T05:29:14;93.13;;;28.95;;
59374;SDS011;45172;55.006;73.460;2022-12-07T05:31:41;91.63;;;30.00;;
59374;SDS011;45172;55.006;73.460;2022-12-07T05:34:08;82.75;;;24.83;;
59374;SDS011;45172;55.006;73.460;2022-12-07T05:36:41;83.25;;;24.05;;
59374;SDS011;45172;55.006;73.460;2022-12-07T05:39:07;58.97;;;19.38;;
59374;SDS011;45172;55.006;73.460;2022-12-07T05:41:33;41.72;;;15.00;;
59374;SDS011;45172;55.006;73.460;2022-12-07T05:52:47;37.15;;;11.65;;
59374;SDS011;45172;55.006;73.460;2022-12-07T05:59:33;51.13;;;15.73;;
59374;SDS011;45172;55.006;73.460;2022-12-07T06:06:17;47.85;;;13.45;;
59374;SDS011;45172;55.006;73.460;2022-12-07T06:13:03;34.80;;;12.25;;
59374;SDS011;45172;55.006;73.460;2022-12-07T06:15:35;28.63;;;11.68;;
59374;SDS011;45172;55.006;73.460;2022-12-07T06:18:02;33.50;;;11.95;;
59374;SDS011;45172;55.006;73.460;2022-12-07T06:20:28;48.38;;;15.45;;
59374;SDS011;45172;55.006;73.460;2022-12-07T06:22:54;58.42;;;18.65;;
59374;SDS011;45172;55.006;73.460;2022-12-07T06:25:20;59.03;;;19.33;;
59374;SDS011;45172;55.006;73.460;2022-12-07T06:27:46;56.17;;;18.88;;
59374;SDS011;45172;55.006;73.460;2022-12-07T06:30:12;61.10;;;19.75;;
59374;SDS011;45172;55.006;73.460;2022-12-07T06:32:44;43.40;;;13.80;;
59374;SDS011;45172;55.006;73.460;2022-12-07T06:35:10;51.85;;;15.70;;
59374;SDS011;45172;55.006;73.460;2022-12-07T06:37:41;53.55;;;13.27;;
59374;SDS011;45172;55.006;73.460;2022-12-07T06:40:08;31.83;;;10.68;;
59374;SDS011;45172;55.006;73.460;2022-12-07T06:42:43;32.03;;;9.95;;
59374;SDS011;45172;55.006;73.460;2022-12-07T06:49:27;67.70;;;19.00;;
59374;SDS011;45172;55.006;73.460;2022-12-07T07:01:14;24.70;;;10.77;;
59374;SDS011;45172;55.006;73.460;2022-12-07T07:07:59;26.30;;;8.38;;
59374;SDS011;45172;55.006;73.460;2022-12-07T07:14:43;16.80;;;6.18;;
59374;SDS011;45172;55.006;73.460;2022-12-07T07:21:27;27.15;;;7.78;;
59374;SDS011;45172;55.006;73.460;2022-12-07T07:23:53;25.50;;;8.25;;
59374;SDS011;45172;55.006;73.460;2022-12-07T07:26:20;30.05;;;7.30;;
59374;SDS011;45172;55.006;73.460;2022-12-07T07:28:46;18.15;;;6.22;;
59374;SDS011;45172;55.006;73.460;2022-12-07T07:31:12;24.08;;;7.05;;
59374;SDS011;45172;55.006;73.460;2022-12-07T07:33:48;24.23;;;8.50;;
59374;SDS011;45172;55.006;73.460;2022-12-07T07:36:25;33.95;;;9.73;;
59374;SDS011;45172;55.006;73.460;2022-12-07T07:38:51;39.17;;;7.32;;
59374;SDS011;45172;55.006;73.460;2022-12-07T07:41:16;30.63;;;8.88;;
59374;SDS011;45172;55.006;73.460;2022-12-07T07:52:30;25.15;;;7.57;;
59374;SDS011;45172;55.006;73.460;2022-12-07T07:54:56;21.40;;;6.65;;
59374;SDS011;45172;55.006;73.460;2022-12-07T08:05:28;23.83;;;7.72;;
59374;SDS011;45172;55.006;73.460;2022-12-07T08:12:13;25.17;;;6.47;;
59374;SDS011;45172;55.006;73.460;2022-12-07T08:18:57;15.23;;;5.03;;
59374;SDS011;45172;55.006;73.460;2022-12-07T08:25:46;38.47;;;9.75;;
59374;SDS011;45172;55.006;73.460;2022-12-07T08:32:31;22.30;;;6.78;;
59374;SDS011;45172;55.006;73.460;2022-12-07T08:39:15;24.10;;;5.28;;
59374;SDS011;45172;55.006;73.460;2022-12-07T08:44:37;31.60;;;8.23;;
59374;SDS011;45172;55.006;73.460;2022-12-07T08:47:04;14.82;;;5.72;;
59374;SDS011;45172;55.006;73.460;2022-12-07T08:49:33;21.95;;;6.68;;
59374;SDS011;45172;55.006;73.460;2022-12-07T08:52:05;27.38;;;8.85;;
59374;SDS011;45172;55.006;73.460;2022-12-07T08:54:31;38.88;;;8.55;;
59374;SDS011;45172;55.006;73.460;2022-12-07T08:57:01;39.22;;;9.95;;
59374;SDS011;45172;55.006;73.460;2022-12-07T08:59:27;30.02;;;8.57;;
59374;SDS011;45172;55.006;73.460;2022-12-07T09:01:54;48.72;;;8.77;;
59374;SDS011;45172;55.006;73.460;2022-12-07T09:04:20;40.92;;;7.90;;
59374;SDS011;45172;55.006;73.460;2022-12-07T09:06:47;20.77;;;7.82;;
59374;SDS011;45172;55.006;73.460;2022-12-07T09:09:14;19.27;;;7.50;;
59374;SDS011;45172;55.006;73.460;2022-12-07T09:11:45;31.17;;;8.20;;
59374;SDS011;45172;55.006;73.460;2022-12-07T09:14:12;36.33;;;9.30;;
59374;SDS011;45172;55.006;73.460;2022-12-07T09:16:38;49.28;;;9.35;;
59374;SDS011;45172;55.006;73.460;2022-12-07T09:19:10;38.40;;;9.40;;
59374;SDS011;45172;55.006;73.460;2022-12-07T09:21:36;21.80;;;6.72;;
59374;SDS011;45172;55.006;73.460;2022-12-07T09:24:05;16.17;;;4.13;;
59374;SDS011;45172;55.006;73.460;2022-12-07T09:26:31;46.88;;;8.32;;
59374;SDS011;45172;55.006;73.460;2022-12-07T09:29:07;37.50;;;7.78;;
59374;SDS011;45172;55.006;73.460;2022-12-07T09:31:35;34.75;;;7.57;;
59374;SDS011;45172;55.006;73.460;2022-12-07T09:34:02;15.80;;;4.60;;
59374;SDS011;45172;55.006;73.460;2022-12-07T09:36:28;13.95;;;4.82;;
59374;SDS011;45172;55.006;73.460;2022-12-07T09:39:02;15.85;;;2.95;;
59374;SDS011;45172;55.006;73.460;2022-12-07T09:41:30;18.40;;;5.28;;
59374;SDS011;45172;55.006;73.460;2022-12-07T09:44:03;29.35;;;7.15;;
59374;SDS011;45172;55.006;73.460;2022-12-07T09:46:34;16.50;;;5.07;;
59374;SDS011;45172;55.006;73.460;2022-12-07T09:49:05;51.08;;;10.00;;
59374;SDS011;45172;55.006;73.460;2022-12-07T09:51:35;23.27;;;7.40;;
59374;SDS011;45172;55.006;73.460;2022-12-07T09:54:01;19.33;;;6.80;;
59374;SDS011;45172;55.006;73.460;2022-12-07T09:56:28;22.33;;;6.43;;
59374;SDS011;45172;55.006;73.460;2022-12-07T09:58:58;28.25;;;7.07;;
59374;SDS011;45172;55.006;73.460;2022-12-07T10:01:29;27.63;;;7.47;;
59374;SDS011;45172;55.006;73.460;2022-12-07T10:06:40;11.25;;;3.13;;
59374;SDS011;45172;55.006;73.460;2022-12-07T10:09:14;39.38;;;6.55;;
59374;SDS011;45172;55.006;73.460;2022-12-07T10:12:02;33.30;;;7.40;;
59374;SDS011;45172;55.006;73.460;2022-12-07T10:14:31;31.80;;;7.25;;
59374;SDS011;45172;55.006;73.460;2022-12-07T10:16:59;21.17;;;7.05;;
59374;SDS011;45172;55.006;73.460;2022-12-07T10:19:29;24.65;;;6.72;;
59374;SDS011;45172;55.006;73.460;2022-12-07T10:22:10;33.40;;;8.02;;
59374;SDS011;45172;55.006;73.460;2022-12-07T10:24:39;27.35;;;6.70;;
59374;SDS011;45172;55.006;73.460;2022-12-07T10:27:21;36.83;;;7.35;;
59374;SDS011;45172;55.006;73.460;2022-12-07T10:29:52;18.40;;;6.45;;
59374;SDS011;45172;55.006;73.460;2022-12-07T10:34:45;14.90;;;4.90;;
59374;SDS011;45172;55.006;73.460;2022-12-07T10:39:46;52.33;;;11.90;;
59374;SDS011;45172;55.006;73.460;2022-12-07T10:42:26;45.05;;;9.30;;
59374;SDS011;45172;55.006;73.460;2022-12-07T10:48:06;32.58;;;7.97;;
59374;SDS011;45172;55.006;73.460;2022-12-07T10:59:06;38.75;;;7.78;;
59374;SDS011;45172;55.006;73.460;2022-12-07T11:04:39;50.65;;;11.15;;
59374;SDS011;45172;55.006;73.460;2022-12-07T11:10:29;38.70;;;6.43;;
59374;SDS011;45172;55.006;73.460;2022-12-07T11:24:14;25.90;;;7.13;;
59374;SDS011;45172;55.006;73.460;2022-12-07T11:37:42;25.45;;;9.77;;
59374;SDS011;45172;55.006;73.460;2022-12-07T11:40:15;58.00;;;12.57;;
59374;SDS011;45172;55.006;73.460;2022-12-07T11:43:13;58.10;;;11.98;;
59374;SDS011;45172;55.006;73.460;2022-12-07T11:45:42;56.22;;;11.32;;
59374;SDS011;45172;55.006;73.460;2022-12-07T11:48:17;63.83;;;11.13;;
59374;SDS011;45172;55.006;73.460;2022-12-07T11:50:54;80.13;;;11.02;;
59374;SDS011;45172;55.006;73.460;2022-12-07T11:53:25;27.50;;;7.78;;
59374;SDS011;45172;55.006;73.460;2022-12-07T12:04:16;55.22;;;11.48;;
59374;SDS011;45172;55.006;73.460;2022-12-07T12:06:54;42.38;;;8.52;;
59374;SDS011;45172;55.006;73.460;2022-12-07T12:17:22;64.82;;;12.15;;
59374;SDS011;45172;55.006;73.460;2022-12-07T12:23:05;49.92;;;17.67;;
59374;SDS011;45172;55.006;73.460;2022-12-07T12:25:37;28.83;;;8.38;;
59374;SDS011;45172;55.006;73.460;2022-12-07T12:28:18;48.03;;;9.23;;
59374;SDS011;45172;55.006;73.460;2022-12-07T12:33:52;20.35;;;7.88;;
59374;SDS011;45172;55.006;73.460;2022-12-07T12:48:36;36.75;;;10.88;;
59374;SDS011;45172;55.006;73.460;2022-12-07T12:55:23;15.32;;;6.18;;
59374;SDS011;45172;55.006;73.460;2022-12-07T13:06:39;55.65;;;13.63;;
59374;SDS011;45172;55.006;73.460;2022-12-07T13:13:30;33.00;;;8.63;;
59374;SDS011;45172;55.006;73.460;2022-12-07T13:20:39;5.95;;;3.42;;
59374;SDS011;45172;55.006;73.460;2022-12-07T13:37:30;34.10;;;9.68;;
59374;SDS011;45172;55.006;73.460;2022-12-07T13:39:59;36.92;;;9.15;;
59374;SDS011;45172;55.006;73.460;2022-12-07T13:42:34;34.63;;;8.55;;
59374;SDS011;45172;55.006;73.460;2022-12-07T13:45:25;47.20;;;11.50;;
59374;SDS011;45172;55.006;73.460;2022-12-07T13:50:57;31.15;;;9.38;;
59374;SDS011;45172;55.006;73.460;2022-12-07T13:53:25;32.90;;;10.40;;
59374;SDS011;45172;55.006;73.460;2022-12-07T13:55:58;49.25;;;12.55;;
59374;SDS011;45172;55.006;73.460;2022-12-07T13:58:27;55.03;;;14.02;;
59374;SDS011;45172;55.006;73.460;2022-12-07T14:01:06;58.80;;;13.63;;
59374;SDS011;45172;55.006;73.460;2022-12-07T14:03:34;45.58;;;13.40;;
59374;SDS011;45172;55.006;73.460;2022-12-07T14:09:20;116.20;;;33.13;;
59374;SDS011;45172;55.006;73.460;2022-12-07T14:11:48;82.35;;;17.15;;
59374;SDS011;45172;55.006;73.460;2022-12-07T14:14:22;41.88;;;11.13;;
59374;SDS011;45172;55.006;73.460;2022-12-07T14:17:01;49.85;;;16.30;;
59374;SDS011;45172;55.006;73.460;2022-12-07T14:19:40;102.53;;;29.02;;
59374;SDS011;45172;55.006;73.460;2022-12-07T14:22:19;75.18;;;23.63;;
59374;SDS011;45172;55.006;73.460;2022-12-07T14:24:46;79.57;;;17.95;;
59374;SDS011;45172;55.006;73.460;2022-12-07T14:27:22;60.50;;;14.25;;
59374;SDS011;45172;55.006;73.460;2022-12-07T14:30:02;73.53;;;20.35;;
59374;SDS011;45172;55.006;73.460;2022-12-07T14:32:29;85.80;;;22.30;;
59374;SDS011;45172;55.006;73.460;2022-12-07T14:35:03;78.03;;;19.05;;
59374;SDS011;45172;55.006;73.460;2022-12-07T14:37:42;59.38;;;18.23;;
59374;SDS011;45172;55.006;73.460;2022-12-07T14:40:13;76.05;;;24.17;;
59374;SDS011;45172;55.006;73.460;2022-12-07T14:42:42;58.65;;;20.48;;
59374;SDS011;45172;55.006;73.460;2022-12-07T14:45:13;65.85;;;21.48;;
59374;SDS011;45172;55.006;73.460;2022-12-07T14:47:52;63.67;;;17.55;;
59374;SDS011;45172;55.006;73.460;2022-12-07T14:50:20;53.25;;;18.10;;
59374;SDS011;45172;55.006;73.460;2022-12-07T14:53:00;56.53;;;19.75;;
59374;SDS011;45172;55.006;73.460;2022-12-07T14:55:38;67.93;;;21.88;;
59374;SDS011;45172;55.006;73.460;2022-12-07T14:58:04;72.18;;;20.27;;
59374;SDS011;45172;55.006;73.460;2022-12-07T15:00:30;63.35;;;19.55;;
59374;SDS011;45172;55.006;73.460;2022-12-07T15:02:56;65.40;;;19.50;;
59374;SDS011;45172;55.006;73.460;2022-12-07T15:05:28;44.25;;;14.52;;
59374;SDS011;45172;55.006;73.460;2022-12-07T15:07:54;77.55;;;20.20;;
59374;SDS011;45172;55.006;73.460;2022-12-07T15:10:24;58.88;;;17.60;;
59374;SDS011;45172;55.006;73.460;2022-12-07T15:13:01;39.95;;;14.35;;
59374;SDS011;45172;55.006;73.460;2022-12-07T15:15:56;34.90;;;13.27;;
59374;SDS011;45172;55.006;73.460;2022-12-07T15:18:23;41.05;;;12.77;;
59374;SDS011;45172;55.006;73.460;2022-12-07T15:20:50;29.00;;;9.85;;
59374;SDS011;45172;55.006;73.460;2022-12-07T15:23:16;40.30;;;13.95;;
59374;SDS011;45172;55.006;73.460;2022-12-07T15:25:43;31.15;;;10.57;;
59374;SDS011;45172;55.006;73.460;2022-12-07T15:28:10;37.25;;;13.07;;
59374;SDS011;45172;55.006;73.460;2022-12-07T15:30:37;37.88;;;13.40;;
59374;SDS011;45172;55.006;73.460;2022-12-07T15:33:04;14.55;;;7.22;;
59374;SDS011;45172;55.006;73.460;2022-12-07T15:35:30;38.90;;;13.98;;
59374;SDS011;45172;55.006;73.460;2022-12-07T15:37:57;57.60;;;19.15;;
59374;SDS011;45172;55.006;73.460;2022-12-07T15:40:27;31.10;;;11.55;;
59374;SDS011;45172;55.006;73.460;2022-12-07T15:42:54;34.85;;;12.52;;
59374;SDS011;45172;55.006;73.460;2022-12-07T15:45:20;59.33;;;17.33;;
59374;SDS011;45172;55.006;73.460;2022-12-07T15:47:47;58.15;;;20.50;;
59374;SDS011;45172;55.006;73.460;2022-12-07T15:50:13;54.35;;;17.90;;
59374;SDS011;45172;55.006;73.460;2022-12-07T15:52:41;52.30;;;19.60;;
59374;SDS011;45172;55.006;73.460;2022-12-07T15:55:11;61.08;;;21.50;;
59374;SDS011;45172;55.006;73.460;2022-12-07T15:57:37;32.05;;;11.93;;
59374;SDS011;45172;55.006;73.460;2022-12-07T16:00:13;67.57;;;20.00;;
59374;SDS011;45172;55.006;73.460;2022-12-07T16:02:47;58.38;;;14.13;;
59374;SDS011;45172;55.006;73.460;2022-12-07T16:05:13;54.63;;;15.60;;
59374;SDS011;45172;55.006;73.460;2022-12-07T16:07:39;58.40;;;19.15;;
59374;SDS011;45172;55.006;73.460;2022-12-07T16:10:06;44.30;;;16.85;;
59374;SDS011;45172;55.006;73.460;2022-12-07T16:12:32;30.85;;;10.02;;
59374;SDS011;45172;55.006;73.460;2022-12-07T16:15:04;62.30;;;21.77;;
59374;SDS011;45172;55.006;73.460;2022-12-07T16:17:31;54.25;;;18.08;;
59374;SDS011;45172;55.006;73.460;2022-12-07T16:20:03;87.82;;;21.65;;
59374;SDS011;45172;55.006;73.460;2022-12-07T16:22:35;54.58;;;18.75;;
59374;SDS011;45172;55.006;73.460;2022-12-07T16:25:01;48.15;;;18.92;;
59374;SDS011;45172;55.006;73.460;2022-12-07T16:27:27;54.40;;;17.30;;
59374;SDS011;45172;55.006;73.460;2022-12-07T16:30:02;55.17;;;16.88;;
59374;SDS011;45172;55.006;73.460;2022-12-07T16:32:29;60.85;;;21.45;;
59374;SDS011;45172;55.006;73.460;2022-12-07T16:34:55;51.17;;;17.02;;
59374;SDS011;45172;55.006;73.460;2022-12-07T16:37:21;41.42;;;11.50;;
59374;SDS011;45172;55.006;73.460;2022-12-07T16:39:47;34.63;;;13.30;;
59374;SDS011;45172;55.006;73.460;2022-12-07T16:42:42;68.70;;;20.15;;
59374;SDS011;45172;55.006;73.460;2022-12-07T16:45:14;54.88;;;18.40;;
59374;SDS011;45172;55.006;73.460;2022-12-07T16:47:40;54.45;;;20.48;;
59374;SDS011;45172;55.006;73.460;2022-12-07T16:50:06;67.80;;;22.17;;
59374;SDS011;45172;55.006;73.460;2022-12-07T16:52:33;63.78;;;21.23;;
59374;SDS011;45172;55.006;73.460;2022-12-07T16:55:07;83.65;;;23.35;;
59374;SDS011;45172;55.006;73.460;2022-12-07T16:57:33;69.00;;;21.50;;
59374;SDS011;45172;55.006;73.460;2022-12-07T17:00:12;66.22;;;20.33;;
59374;SDS011;45172;55.006;73.460;2022-12-07T17:02:39;64.07;;;19.63;;
59374;SDS011;45172;55.006;73.460;2022-12-07T17:05:05;84.05;;;23.02;;
59374;SDS011;45172;55.006;73.460;2022-12-07T17:07:41;65.43;;;18.38;;
59374;SDS011;45172;55.006;73.460;2022-12-07T17:10:07;82.10;;;23.02;;
59374;SDS011;45172;55.006;73.460;2022-12-07T17:12:34;72.35;;;18.33;;
59374;SDS011;45172;55.006;73.460;2022-12-07T17:15:01;60.50;;;20.15;;
59374;SDS011;45172;55.006;73.460;2022-12-07T17:17:51;56.60;;;20.92;;
59374;SDS011;45172;55.006;73.460;2022-12-07T17:20:19;61.55;;;20.58;;
59374;SDS011;45172;55.006;73.460;2022-12-07T17:22:45;61.78;;;17.88;;
59374;SDS011;45172;55.006;73.460;2022-12-07T17:25:17;75.28;;;18.30;;
59374;SDS011;45172;55.006;73.460;2022-12-07T17:27:45;57.75;;;17.85;;
59374;SDS011;45172;55.006;73.460;2022-12-07T17:30:13;58.58;;;19.02;;
59374;SDS011;45172;55.006;73.460;2022-12-07T17:32:39;49.17;;;16.33;;
59374;SDS011;45172;55.006;73.460;2022-12-07T17:35:05;48.78;;;14.93;;
59374;SDS011;45172;55.006;73.460;2022-12-07T17:37:32;64.75;;;15.18;;
59374;SDS011;45172;55.006;73.460;2022-12-07T17:39:58;65.07;;;20.58;;
59374;SDS011;45172;55.006;73.460;2022-12-07T17:42:25;59.65;;;17.10;;
59374;SDS011;45172;55.006;73.460;2022-12-07T17:45:10;56.55;;;18.60;;
59374;SDS011;45172;55.006;73.460;2022-12-07T17:47:42;37.35;;;13.95;;
59374;SDS011;45172;55.006;73.460;2022-12-07T17:50:11;43.30;;;15.73;;
59374;SDS011;45172;55.006;73.460;2022-12-07T17:52:42;56.35;;;17.88;;
59374;SDS011;45172;55.006;73.460;2022-12-07T17:58:07;78.47;;;24.25;;
59374;SDS011;45172;55.006;73.460;2022-12-07T18:00:33;64.90;;;20.80;;
59374;SDS011;45172;55.006;73.460;2022-12-07T18:03:06;49.00;;;16.17;;
59374;SDS011;45172;55.006;73.460;2022-12-07T18:05:41;55.83;;;18.13;;
59374;SDS011;45172;55.006;73.460;2022-12-07T18:08:09;77.95;;;20.45;;
59374;SDS011;45172;55.006;73.460;2022-12-07T18:10:35;73.93;;;25.33;;
59374;SDS011;45172;55.006;73.460;2022-12-07T18:13:01;82.90;;;24.67;;
59374;SDS011;45172;55.006;73.460;2022-12-07T18:15:45;49.72;;;15.88;;
59374;SDS011;45172;55.006;73.460;2022-12-07T18:18:16;46.50;;;16.33;;
59374;SDS011;45172;55.006;73.460;2022-12-07T18:20:42;42.45;;;14.90;;
59374;SDS011;45172;55.006;73.460;2022-12-07T18:23:18;61.20;;;19.30;;
59374;SDS011;45172;55.006;73.460;2022-12-07T18:25:51;36.05;;;12.15;;
59374;SDS011;45172;55.006;73.460;2022-12-07T18:28:17;75.45;;;19.95;;
59374;SDS011;45172;55.006;73.460;2022-12-07T18:30:45;58.42;;;16.08;;
59374;SDS011;45172;55.006;73.460;2022-12-07T18:33:17;44.92;;;13.93;;